createdAt,value
2022-08-09T00:00:00.046Z,4.27
2022-08-09T00:02:28.051Z,6.33
2022-08-09T00:05:03.099Z,7.43
2022-08-09T00:07:44.864Z,7.07
2022-08-09T00:10:18.173Z,6.73
2022-08-09T00:12:51.556Z,4.07
2022-08-09T00:15:18.851Z,4.80
2022-08-09T00:18:10.687Z,4.00
2022-08-09T00:20:34.114Z,3.30
2022-08-09T00:23:09.949Z,3.63
2022-08-09T00:25:51.614Z,3.23
2022-08-09T00:28:19.286Z,3.00
2022-08-09T00:30:51.927Z,2.83
2022-08-09T00:33:18.408Z,2.60
2022-08-09T00:35:45.340Z,2.93
2022-08-09T00:38:12.888Z,2.77
2022-08-09T00:40:39.981Z,2.50
2022-08-09T00:44:14.998Z,2.10
2022-08-09T00:46:09.356Z,2.43
2022-08-09T00:48:36.939Z,2.80
2022-08-09T00:51:11.900Z,2.10
2022-08-09T00:53:39.891Z,2.23
2022-08-09T00:56:09.724Z,2.53
2022-08-09T00:58:36.758Z,2.03
2022-08-09T01:01:15.810Z,2.30
2022-08-09T01:04:05.625Z,2.47
2022-08-09T01:07:37.662Z,2.30
2022-08-09T01:10:28.942Z,2.13
2022-08-09T01:13:07.497Z,2.00
2022-08-09T01:15:41.044Z,2.20
2022-08-09T01:18:30.469Z,2.10
2022-08-09T01:21:50.906Z,2.30
2022-08-09T01:24:36.335Z,2.00
2022-08-09T01:27:24.783Z,2.40
2022-08-09T01:29:56.344Z,2.37
2022-08-09T01:32:29.682Z,2.47
2022-08-09T01:35:00.186Z,2.10
2022-08-09T01:38:06.376Z,2.07
2022-08-09T01:40:28.588Z,2.33
2022-08-09T01:42:55.898Z,2.70
2022-08-09T01:45:22.704Z,2.20
2022-08-09T01:47:49.722Z,2.23
2022-08-09T01:50:16.444Z,2.20
2022-08-09T01:52:43.897Z,2.30
2022-08-09T01:55:11.404Z,2.23
2022-08-09T01:57:45.814Z,2.60
2022-08-09T02:00:35.394Z,2.87
2022-08-09T02:03:00.685Z,2.40
2022-08-09T02:05:35.591Z,2.40
2022-08-09T02:08:39.490Z,2.53
2022-08-09T02:10:56.847Z,2.10
2022-08-09T02:13:26.086Z,2.20
2022-08-09T02:16:05.967Z,2.73
2022-08-09T02:18:34.496Z,2.17
2022-08-09T02:21:09.224Z,2.20
2022-08-09T02:23:39.886Z,2.07
2022-08-09T02:26:07.794Z,2.00
2022-08-09T02:28:55.000Z,2.50
2022-08-09T02:31:33.982Z,2.07
2022-08-09T02:34:13.187Z,2.07
2022-08-09T02:36:42.325Z,2.30
2022-08-09T02:39:19.778Z,2.20
2022-08-09T02:42:17.244Z,2.40
2022-08-09T02:44:48.665Z,2.27
2022-08-09T02:47:17.012Z,2.27
2022-08-09T02:50:01.173Z,2.80
2022-08-09T02:52:35.341Z,2.30
2022-08-09T02:55:03.240Z,2.30
2022-08-09T02:58:00.637Z,2.00
2022-08-09T03:00:35.712Z,2.30
2022-08-09T03:03:06.637Z,2.40
2022-08-09T03:05:35.188Z,2.83
2022-08-09T03:08:03.438Z,2.73
2022-08-09T03:10:30.668Z,2.30
2022-08-09T03:12:58.111Z,2.40
2022-08-09T03:15:25.598Z,2.63
2022-08-09T03:18:12.377Z,2.70
2022-08-09T03:20:39.374Z,2.23
2022-08-09T03:23:15.139Z,2.80
2022-08-09T03:25:58.260Z,2.83
2022-08-09T03:28:30.502Z,2.53
2022-08-09T03:30:57.964Z,2.47
2022-08-09T03:33:25.970Z,2.87
2022-08-09T03:36:16.355Z,3.03
2022-08-09T03:38:44.581Z,3.53
2022-08-09T03:41:14.814Z,2.60
2022-08-09T03:43:43.102Z,2.90
2022-08-09T03:46:30.377Z,3.10
2022-08-09T03:48:59.513Z,2.63
2022-08-09T03:51:57.222Z,3.17
2022-08-09T03:54:18.703Z,2.80
2022-08-09T03:56:57.895Z,2.60
2022-08-09T03:59:32.969Z,3.00
2022-08-09T04:02:11.415Z,2.63
2022-08-09T04:04:45.553Z,2.80
2022-08-09T04:07:14.551Z,2.43
2022-08-09T04:09:50.126Z,2.90
2022-08-09T04:12:35.467Z,2.70
2022-08-09T04:15:11.339Z,2.37
2022-08-09T04:17:44.351Z,2.73
2022-08-09T04:20:14.612Z,2.90
2022-08-09T04:22:44.309Z,2.73
2022-08-09T04:25:11.934Z,3.10
2022-08-09T04:27:42.905Z,2.97
2022-08-09T04:30:17.460Z,3.87
2022-08-09T04:32:47.845Z,2.77
2022-08-09T04:35:15.314Z,2.40
2022-08-09T04:37:46.017Z,2.63
2022-08-09T04:40:18.888Z,3.03
2022-08-09T04:42:48.533Z,3.10
2022-08-09T04:45:20.412Z,2.70
2022-08-09T04:47:59.315Z,2.70
2022-08-09T04:50:33.724Z,2.57
2022-08-09T04:53:13.089Z,2.60
2022-08-09T04:55:57.318Z,3.00
2022-08-09T04:58:31.645Z,3.27
2022-08-09T05:01:00.504Z,3.43
2022-08-09T05:03:40.390Z,3.80
2022-08-09T05:06:10.717Z,3.80
2022-08-09T05:08:38.189Z,2.40
2022-08-09T05:11:06.950Z,3.30
2022-08-09T05:13:38.668Z,2.83
2022-08-09T05:16:10.140Z,3.03
2022-08-09T05:18:57.455Z,2.90
2022-08-09T05:21:24.867Z,3.13
2022-08-09T05:24:01.229Z,2.83
2022-08-09T05:26:36.743Z,2.90
2022-08-09T05:29:07.760Z,3.67
2022-08-09T05:31:48.299Z,3.47
2022-08-09T05:34:18.783Z,2.97
2022-08-09T05:36:47.242Z,2.60
2022-08-09T05:39:28.911Z,2.97
2022-08-09T05:42:01.757Z,2.93
2022-08-09T05:44:32.767Z,3.00
2022-08-09T05:47:01.394Z,3.30
2022-08-09T05:50:24.208Z,3.43
2022-08-09T05:52:20.016Z,3.03
2022-08-09T05:54:46.639Z,3.27
2022-08-09T05:57:17.678Z,3.37
2022-08-09T05:59:46.247Z,3.43
2022-08-09T06:02:16.986Z,3.20
2022-08-09T06:04:45.935Z,3.17
2022-08-09T06:07:21.396Z,3.23
2022-08-09T06:09:54.945Z,3.43
2022-08-09T06:12:29.181Z,3.07
2022-08-09T06:14:57.711Z,3.20
2022-08-09T06:17:40.127Z,2.67
2022-08-09T06:20:08.116Z,2.80
2022-08-09T06:22:41.377Z,3.77
2022-08-09T06:25:12.326Z,2.70
2022-08-09T06:27:51.440Z,3.10
2022-08-09T06:30:18.954Z,2.83
2022-08-09T06:33:13.606Z,3.30
2022-08-09T06:35:35.782Z,3.00
2022-08-09T06:38:19.865Z,3.13
2022-08-09T06:40:58.921Z,3.10
2022-08-09T06:43:27.134Z,2.97
2022-08-09T06:46:07.696Z,3.00
2022-08-09T06:48:37.595Z,3.10
2022-08-09T06:51:10.616Z,3.07
2022-08-09T06:53:38.367Z,3.13
2022-08-09T06:56:06.843Z,2.63
2022-08-09T07:00:48.935Z,2.97
2022-08-09T07:01:24.207Z,2.80
2022-08-09T07:03:56.713Z,2.80
2022-08-09T07:06:27.930Z,2.97
2022-08-09T07:08:56.309Z,3.33
2022-08-09T07:11:25.622Z,2.60
2022-08-09T07:14:05.077Z,3.13
2022-08-09T07:16:41.669Z,2.93
2022-08-09T07:19:22.938Z,3.70
2022-08-09T07:21:57.031Z,3.33
2022-08-09T07:24:31.519Z,2.93
2022-08-09T07:27:11.108Z,3.43
2022-08-09T07:29:52.931Z,2.80
2022-08-09T07:32:24.123Z,2.80
2022-08-09T07:35:02.590Z,2.90
2022-08-09T07:37:29.510Z,2.80
2022-08-09T07:39:56.168Z,3.40
2022-08-09T07:42:32.835Z,2.70
2022-08-09T07:45:06.565Z,2.90
2022-08-09T07:48:00.700Z,3.03
2022-08-09T07:50:34.830Z,3.33
2022-08-09T07:53:04.505Z,3.43
2022-08-09T07:56:02.824Z,3.30
2022-08-09T07:58:21.656Z,3.03
2022-08-09T08:00:55.993Z,2.73
2022-08-09T08:03:28.246Z,3.00
2022-08-09T08:05:58.165Z,2.70
2022-08-09T08:09:01.718Z,2.73
2022-08-09T08:12:09.368Z,2.70
2022-08-09T08:13:58.711Z,2.70
2022-08-09T08:16:29.777Z,2.50
2022-08-09T08:18:58.219Z,2.57
2022-08-09T08:21:25.100Z,2.93
2022-08-09T08:23:56.136Z,3.80
2022-08-09T08:26:26.340Z,3.97
2022-08-09T08:29:09.017Z,4.60
2022-08-09T08:31:56.514Z,4.03
2022-08-09T08:34:25.514Z,4.10
2022-08-09T08:36:52.179Z,3.37
2022-08-09T08:39:18.794Z,4.10
2022-08-09T08:41:51.766Z,3.37
2022-08-09T08:44:22.982Z,3.27
2022-08-09T08:47:02.711Z,3.07
2022-08-09T08:49:46.489Z,3.13
2022-08-09T08:52:35.029Z,3.43
2022-08-09T08:55:04.008Z,3.00
2022-08-09T08:57:34.777Z,3.20
2022-08-09T09:00:08.296Z,3.23
2022-08-09T09:02:46.748Z,2.87
2022-08-09T09:05:14.459Z,2.80
2022-08-09T09:07:50.405Z,3.07
2022-08-09T09:10:17.867Z,2.70
2022-08-09T09:12:46.209Z,3.53
2022-08-09T09:15:13.072Z,2.87
2022-08-09T09:17:55.255Z,3.20
2022-08-09T09:20:21.870Z,2.90
2022-08-09T09:23:01.729Z,3.17
2022-08-09T09:26:04.401Z,3.10
2022-08-09T09:29:03.074Z,2.90
2022-08-09T09:32:06.517Z,2.50
2022-08-09T09:34:14.695Z,1.87
2022-08-09T09:36:46.947Z,2.77
2022-08-09T09:39:42.866Z,2.00
2022-08-09T09:42:25.816Z,2.67
2022-08-09T09:45:00.479Z,2.43
2022-08-09T09:47:28.519Z,2.22
2022-08-09T09:50:15.011Z,2.00
2022-08-09T09:52:53.825Z,1.80
2022-08-09T09:55:32.605Z,2.10
2022-08-09T09:58:19.256Z,2.60
2022-08-09T10:00:59.792Z,2.43
2022-08-09T10:03:44.300Z,2.40
2022-08-09T10:06:12.679Z,2.22
2022-08-09T10:08:43.104Z,1.90
2022-08-09T10:11:59.219Z,2.03
2022-08-09T10:14:33.503Z,2.00
2022-08-09T10:17:24.418Z,1.93
2022-08-09T10:19:59.919Z,2.00
2022-08-09T10:22:33.379Z,1.60
2022-08-09T10:25:03.422Z,2.50
2022-08-09T10:27:38.744Z,1.90
2022-08-09T10:31:31.719Z,2.50
2022-08-09T10:33:00.328Z,2.00
2022-08-09T10:35:27.262Z,2.00
2022-08-09T10:37:55.460Z,1.70
2022-08-09T10:40:34.748Z,2.20
2022-08-09T10:43:03.195Z,1.73
2022-08-09T10:45:31.822Z,1.80
2022-08-09T10:48:19.450Z,1.98
2022-08-09T10:51:29.573Z,2.50
2022-08-09T10:54:12.223Z,1.90
2022-08-09T10:56:41.797Z,2.13
2022-08-09T10:59:55.544Z,2.10
2022-08-09T11:03:15.932Z,2.20
2022-08-09T11:05:30.251Z,2.37
2022-08-09T11:08:36.359Z,2.90
2022-08-09T11:11:10.455Z,2.42
2022-08-09T11:13:53.852Z,2.63
2022-08-09T11:16:38.465Z,2.27
2022-08-09T11:19:09.383Z,2.00
2022-08-09T11:22:10.516Z,2.17
2022-08-09T11:25:26.026Z,1.95
2022-08-09T11:28:34.168Z,2.70
2022-08-09T11:31:36.420Z,2.67
2022-08-09T11:34:07.745Z,2.07
2022-08-09T11:36:41.895Z,1.90
2022-08-09T11:39:11.095Z,2.30
2022-08-09T11:41:40.340Z,2.05
2022-08-09T11:44:08.075Z,2.50
2022-08-09T11:46:56.749Z,2.22
2022-08-09T11:50:55.856Z,2.13
2022-08-09T11:53:15.609Z,1.90
2022-08-09T11:55:53.539Z,2.10
2022-08-09T11:58:30.333Z,2.13
2022-08-09T12:01:01.643Z,2.20
2022-08-09T12:03:55.496Z,2.20
2022-08-09T12:06:24.832Z,2.20
2022-08-09T12:08:55.856Z,2.03
2022-08-09T12:11:25.731Z,1.88
2022-08-09T12:14:07.508Z,2.10
2022-08-09T12:16:41.610Z,1.95
2022-08-09T12:19:12.090Z,1.90
2022-08-09T12:21:50.730Z,1.70
2022-08-09T12:24:23.946Z,1.50
2022-08-09T12:28:59.463Z,2.03
2022-08-09T12:29:52.359Z,2.03
2022-08-09T12:32:26.593Z,2.23
2022-08-09T12:35:02.685Z,2.10
2022-08-09T12:37:50.754Z,1.80
2022-08-09T12:40:23.161Z,1.52
2022-08-09T12:42:52.257Z,1.75
2022-08-09T12:45:34.815Z,2.00
2022-08-09T12:48:20.044Z,1.88
2022-08-09T12:50:57.039Z,1.90
2022-08-09T12:53:46.229Z,1.80
2022-08-09T12:56:39.225Z,1.90
2022-08-09T12:59:10.121Z,1.60
2022-08-09T13:01:38.936Z,1.60
2022-08-09T13:04:36.497Z,1.70
2022-08-09T13:07:16.720Z,1.95
2022-08-09T13:09:55.639Z,2.00
2022-08-09T13:12:28.219Z,1.90
2022-08-09T13:15:04.710Z,1.85
2022-08-09T13:18:03.264Z,2.20
2022-08-09T13:20:37.298Z,2.00
2022-08-09T13:24:17.459Z,2.00
2022-08-09T13:26:05.449Z,2.20
2022-08-09T13:28:35.611Z,2.17
2022-08-09T13:32:13.512Z,1.87
2022-08-09T13:33:54.982Z,2.07
2022-08-09T13:36:39.189Z,2.20
2022-08-09T13:41:17.752Z,2.05
2022-08-09T13:42:02.803Z,2.27
2022-08-09T13:44:30.613Z,2.00
2022-08-09T13:47:26.649Z,1.90
2022-08-09T13:49:57.835Z,2.13
2022-08-09T13:52:27.981Z,2.33
2022-08-09T13:54:59.102Z,2.30
2022-08-09T13:57:37.480Z,2.30
2022-08-09T14:00:12.151Z,2.37
2022-08-09T14:02:42.747Z,2.63
2022-08-09T14:06:01.247Z,2.20
2022-08-09T14:08:13.367Z,2.20
2022-08-09T14:10:49.243Z,2.53
2022-08-09T14:13:27.681Z,2.35
2022-08-09T14:16:09.995Z,2.30
2022-08-09T14:18:38.346Z,2.07
2022-08-09T14:21:05.984Z,2.13
2022-08-09T14:23:40.432Z,2.00
2022-08-09T14:26:13.571Z,2.10
2022-08-09T14:28:40.117Z,2.27
2022-08-09T14:31:07.130Z,2.10
2022-08-09T14:33:38.205Z,2.17
2022-08-09T14:36:20.701Z,2.13
2022-08-09T14:38:52.480Z,2.50
2022-08-09T14:41:26.651Z,2.30
2022-08-09T14:44:07.029Z,2.40
2022-08-09T14:46:54.551Z,2.20
2022-08-09T14:49:25.075Z,2.27
2022-08-09T14:51:51.845Z,2.50
2022-08-09T14:54:27.783Z,2.40
2022-08-09T14:56:57.854Z,2.60
2022-08-09T14:59:27.214Z,2.13
2022-08-09T15:01:55.826Z,2.80
2022-08-09T15:04:23.885Z,2.60
2022-08-09T15:06:51.943Z,2.13
2022-08-09T15:10:03.890Z,2.70
2022-08-09T15:12:08.041Z,2.63
2022-08-09T15:14:38.608Z,2.08
2022-08-09T15:17:09.286Z,2.33
2022-08-09T15:19:36.683Z,2.50
2022-08-09T15:22:03.605Z,2.33
2022-08-09T15:24:30.341Z,2.80
2022-08-09T15:26:57.678Z,2.05
2022-08-09T15:30:56.811Z,2.30
2022-08-09T15:32:28.616Z,2.88
2022-08-09T15:34:56.366Z,2.40
2022-08-09T15:37:38.049Z,2.27
2022-08-09T15:40:25.243Z,2.45
2022-08-09T15:42:58.333Z,2.67
2022-08-09T15:45:29.732Z,2.50
2022-08-09T15:48:05.128Z,2.45
2022-08-09T15:50:44.183Z,2.40
2022-08-09T15:53:32.685Z,2.40
2022-08-09T15:56:21.429Z,2.67
2022-08-09T15:58:44.925Z,2.47
2022-08-09T16:01:13.282Z,2.50
2022-08-09T16:03:41.670Z,2.13
2022-08-09T16:06:32.633Z,2.60
2022-08-09T16:08:56.670Z,2.30
2022-08-09T16:11:28.674Z,2.00
2022-08-09T16:14:02.681Z,2.30
2022-08-09T16:16:39.086Z,2.27
2022-08-09T16:19:10.650Z,2.33
2022-08-09T16:21:40.939Z,2.20
2022-08-09T16:24:30.299Z,1.80
2022-08-09T16:26:56.816Z,2.30
2022-08-09T16:29:37.915Z,2.40
2022-08-09T16:32:33.476Z,2.10
2022-08-09T16:34:58.392Z,2.20
2022-08-09T16:37:53.027Z,2.33
2022-08-09T16:40:13.677Z,2.07
2022-08-09T16:42:44.858Z,2.37
2022-08-09T16:45:13.895Z,2.33
2022-08-09T16:48:38.672Z,2.57
2022-08-09T16:50:33.854Z,3.10
2022-08-09T16:53:02.134Z,2.30
2022-08-09T16:55:31.405Z,2.23
2022-08-09T16:58:16.958Z,2.53
2022-08-09T17:00:43.743Z,2.83
2022-08-09T17:03:21.655Z,2.42
2022-08-09T17:06:07.579Z,2.30
2022-08-09T17:08:44.381Z,2.53
2022-08-09T17:11:40.742Z,2.43
2022-08-09T17:14:26.376Z,2.20
2022-08-09T17:16:59.689Z,2.30
2022-08-09T17:19:27.668Z,2.37
2022-08-09T17:22:14.455Z,2.40
2022-08-09T17:24:47.510Z,2.40
2022-08-09T17:27:21.741Z,2.60
2022-08-09T17:29:48.391Z,1.87
2022-08-09T17:32:20.281Z,2.70
2022-08-09T17:35:04.159Z,2.60
2022-08-09T17:38:12.745Z,2.40
2022-08-09T17:40:26.415Z,2.70
2022-08-09T17:42:59.141Z,2.40
2022-08-09T17:45:45.532Z,3.90
2022-08-09T17:48:15.609Z,3.00
2022-08-09T17:50:55.941Z,3.03
2022-08-09T17:53:23.415Z,2.93
2022-08-09T17:55:57.038Z,3.13
2022-08-09T17:58:27.402Z,3.00
2022-08-09T18:00:56.738Z,2.97
2022-08-09T18:03:25.493Z,3.10
2022-08-09T18:05:53.641Z,2.70
2022-08-09T18:08:21.924Z,2.83
2022-08-09T18:11:00.895Z,3.00
2022-08-09T18:13:53.717Z,3.20
2022-08-09T18:16:29.153Z,3.40
2022-08-09T18:18:56.601Z,3.20
2022-08-09T18:21:24.436Z,3.30
2022-08-09T18:24:09.999Z,3.97
2022-08-09T18:26:46.998Z,3.57
2022-08-09T18:30:39.092Z,3.60
2022-08-09T18:32:03.076Z,3.40
2022-08-09T18:34:31.801Z,3.00
2022-08-09T18:36:59.029Z,3.67
2022-08-09T18:39:32.199Z,3.73
2022-08-09T18:42:08.815Z,3.23
2022-08-09T18:44:35.869Z,3.90
2022-08-09T18:47:07.877Z,3.00
2022-08-09T18:49:41.538Z,3.33
2022-08-09T18:52:12.054Z,3.47
2022-08-09T18:54:39.256Z,3.30
2022-08-09T18:57:16.117Z,3.83
2022-08-09T18:59:51.218Z,3.87
2022-08-09T19:02:23.934Z,3.37
2022-08-09T19:05:03.681Z,4.20
2022-08-09T19:07:42.120Z,4.17
2022-08-09T19:10:26.711Z,4.93
2022-08-09T19:13:00.239Z,4.17
2022-08-09T19:15:40.640Z,3.87
2022-08-09T19:18:17.345Z,3.60
2022-08-09T19:20:58.312Z,3.60
2022-08-09T19:24:35.828Z,3.83
2022-08-09T19:26:13.666Z,3.70
2022-08-09T19:28:42.647Z,4.50
2022-08-09T19:31:15.593Z,3.73
2022-08-09T19:33:43.726Z,3.77
2022-08-09T19:36:11.799Z,3.70
2022-08-09T19:38:40.108Z,3.73
2022-08-09T19:41:06.677Z,4.07
2022-08-09T19:43:57.918Z,3.90
2022-08-09T19:46:34.846Z,5.50
2022-08-09T19:50:09.025Z,4.97
2022-08-09T19:51:56.042Z,4.30
2022-08-09T19:54:28.207Z,4.00
2022-08-09T19:56:56.493Z,3.87
2022-08-09T19:59:58.901Z,4.40
2022-08-09T20:02:36.181Z,3.87
2022-08-09T20:04:59.901Z,4.20
2022-08-09T20:07:56.665Z,4.10
2022-08-09T20:10:17.718Z,4.03
2022-08-09T20:12:49.250Z,4.33
2022-08-09T20:16:37.051Z,4.33
2022-08-09T20:18:05.404Z,4.60
2022-08-09T20:20:35.633Z,4.20
2022-08-09T20:23:04.530Z,4.07
2022-08-09T20:25:51.393Z,10.73
2022-08-09T20:28:28.101Z,5.73
2022-08-09T20:31:02.684Z,6.43
2022-08-09T20:33:29.701Z,6.40
2022-08-09T20:36:08.613Z,6.70
2022-08-09T20:38:54.449Z,6.90
2022-08-09T20:41:34.833Z,7.00
2022-08-09T20:44:06.796Z,6.07
2022-08-09T20:46:43.210Z,6.67
2022-08-09T20:49:12.271Z,6.77
2022-08-09T20:51:41.560Z,6.70
2022-08-09T20:54:16.437Z,6.47
2022-08-09T20:56:46.981Z,6.00
2022-08-09T20:59:16.762Z,5.80
2022-08-09T21:01:50.380Z,6.10
2022-08-09T21:05:56.925Z,5.60
2022-08-09T21:07:12.375Z,6.43
2022-08-09T21:09:45.683Z,6.40
2022-08-09T21:12:23.208Z,6.43
2022-08-09T21:14:50.129Z,6.27
2022-08-09T21:18:24.061Z,6.40
2022-08-09T21:20:23.109Z,5.40
2022-08-09T21:22:54.135Z,5.50
2022-08-09T21:25:43.776Z,6.00
2022-08-09T21:28:12.080Z,5.60
2022-08-09T21:30:42.461Z,6.57
2022-08-09T21:33:09.529Z,6.67
2022-08-09T21:35:39.472Z,5.80
2022-08-09T21:38:09.108Z,6.03
2022-08-09T21:40:36.775Z,5.47
2022-08-09T21:43:06.243Z,5.23
2022-08-09T21:45:38.838Z,5.40
2022-08-09T21:48:06.789Z,5.30
2022-08-09T21:50:38.569Z,5.20
2022-08-09T21:53:15.772Z,5.73
2022-08-09T21:55:54.389Z,5.43
2022-08-09T21:58:20.986Z,5.03
2022-08-09T22:00:55.885Z,4.80
2022-08-09T22:03:25.856Z,4.83
2022-08-09T22:05:54.253Z,4.90
2022-08-09T22:08:23.048Z,4.40
2022-08-09T22:11:50.167Z,4.47
2022-08-09T22:13:38.816Z,4.83
2022-08-09T22:16:10.056Z,4.83
2022-08-09T22:18:37.974Z,4.70
2022-08-09T22:21:09.892Z,4.43
2022-08-09T22:23:58.604Z,4.37
2022-08-09T22:26:34.937Z,4.30
2022-08-09T22:29:07.103Z,4.33
2022-08-09T22:31:35.867Z,4.20
2022-08-09T22:34:02.609Z,4.57
2022-08-09T22:36:29.114Z,4.30
2022-08-09T22:39:46.967Z,4.37
2022-08-09T22:41:59.198Z,4.87
2022-08-09T22:44:32.737Z,4.80
2022-08-09T22:48:11.849Z,4.83
2022-08-09T22:49:46.524Z,4.87
2022-08-09T22:52:13.152Z,4.90
2022-08-09T22:54:42.244Z,4.37
2022-08-09T22:57:12.058Z,4.83
2022-08-09T22:59:57.333Z,4.60
2022-08-09T23:02:25.260Z,5.20
2022-08-09T23:04:53.845Z,4.87
2022-08-09T23:08:27.738Z,5.00
2022-08-09T23:10:27.651Z,5.00
2022-08-09T23:12:54.120Z,5.47
2022-08-09T23:15:20.727Z,5.57
2022-08-09T23:17:47.272Z,5.33
2022-08-09T23:20:13.769Z,5.27
2022-08-09T23:22:40.302Z,6.10
2022-08-09T23:25:07.179Z,5.90
2022-08-09T23:27:34.877Z,6.87
2022-08-09T23:30:01.521Z,7.40
2022-08-09T23:32:28.161Z,6.60
2022-08-09T23:34:54.642Z,7.33
2022-08-09T23:37:22.776Z,6.30
2022-08-09T23:39:52.382Z,6.03
2022-08-09T23:42:18.922Z,6.50
2022-08-09T23:44:45.497Z,6.47
2022-08-09T23:47:12.151Z,6.50
2022-08-09T23:49:38.629Z,6.37
2022-08-09T23:52:05.313Z,6.07
2022-08-09T23:54:31.938Z,6.10
2022-08-09T23:56:58.964Z,6.10
2022-08-09T23:59:25.830Z,6.83
